Time;durP1;ratioP1;P1;durP2;ratioP2;P2;SDS_P1;SDS_P2;PMS_P1;PMS_P2;Temp;Humidity;BMP_temperature;BMP_pressure;BME280_temperature;BME280_humidity;BME280_pressure;Samples;Min_cycle;Max_cycle;Signal;HPM_P1;HPM_P2
2023/10/25 07:23:22;;;;;;;6.28;3.28;;;;;;;-145.79;100.00;76699.06;5338197;27;20427;-65
2023/10/25 07:25:53;;;;;;;4.85;2.85;;;;;;;-145.79;100.00;76699.06;5348504;27;20027;-65
2023/10/25 07:28:25;;;;;;;4.97;2.88;;;;;;;-145.79;100.00;76699.06;5354052;27;20019;-67
2023/10/25 07:30:56;;;;;;;6.70;3.35;;;;;;;-145.79;100.00;76686.34;5344336;27;20019;-66
2023/10/25 07:33:28;;;;;;;5.10;3.60;;;;;;;-145.79;100.00;76669.38;5355592;27;20038;-66
2023/10/25 07:35:59;;;;;;;5.05;2.70;;;;;;;-145.79;100.00;76677.84;5351011;27;20102;-65
2023/10/25 07:38:31;;;;;;;6.45;3.22;;;;;;;-145.79;100.00;76656.66;5348527;27;20102;-65
2023/10/25 07:41:02;;;;;;;4.22;2.55;;;;;;;-145.79;100.00;76665.16;5355635;27;20055;-66
2023/10/25 07:43:33;;;;;;;4.00;2.35;;;;;;;-145.79;100.00;76639.72;5354990;27;20059;-67
2023/10/25 07:46:05;;;;;;;5.18;2.75;;;;;;;-145.79;100.00;76637.59;5344180;27;20500;-67
2023/10/25 07:48:36;;;;;;;5.65;3.17;;;;;;;-145.79;100.00;76627.00;5341482;27;20032;-66
2023/10/25 07:51:07;;;;;;;3.03;2.40;;;;;;;-145.79;100.00;76627.00;5355591;27;20038;-67
2023/10/25 07:53:38;;;;;;;5.07;2.78;;;;;;;-145.79;100.00;76614.28;5335740;27;20024;-66
2023/10/25 07:56:10;;;;;;;4.85;3.20;;;;;;;-145.79;100.00;76605.81;5349707;27;20123;-66
2023/10/25 07:58:41;;;;;;;6.22;2.92;;;;;;;-145.79;100.00;76601.56;5355400;27;20019;-66
2023/10/25 08:01:13;;;;;;;8.60;3.40;;;;;;;-145.79;100.00;76597.31;5352807;27;20039;-66
2023/10/25 08:03:44;;;;;;;4.47;2.85;;;;;;;-145.79;100.00;76582.50;5350695;27;20027;-66
2023/10/25 08:06:15;;;;;;;4.63;3.00;;;;;;;-145.79;100.00;76584.59;5345695;27;20070;-65
2023/10/25 08:08:50;;;;;;;4.68;3.17;;;;;;;-145.79;100.00;76580.38;5351136;27;20015;-66
2023/10/25 08:11:21;;;;;;;5.93;2.50;;;;;;;-145.79;100.00;76580.38;5346733;27;20049;-67
2023/10/25 08:13:52;;;;;;;8.20;2.83;;;;;;;-145.79;100.00;76578.25;5340144;27;20080;-67
2023/10/25 08:16:24;;;;;;;4.72;2.30;;;;;;;-145.79;100.00;76571.91;5341557;27;20026;-67
2023/10/25 08:18:55;;;;;;;4.07;2.72;;;;;;;-145.79;100.00;76563.41;5349955;27;20026;-67
2023/10/25 08:21:26;;;;;;;3.35;2.38;;;;;;;-145.79;100.00;76554.94;5344359;27;20517;-67
2023/10/25 08:23:58;;;;;;;2.78;1.98;;;;;;;-145.79;100.00;76550.69;5341078;27;20046;-67
2023/10/25 08:26:29;;;;;;;4.70;2.35;;;;;;;-145.79;100.00;76554.94;5352002;27;20020;-66
2023/10/25 08:29:02;;;;;;;8.50;7.55;;;;;;;-145.79;100.00;76544.34;5331282;27;20028;-65
2023/10/25 08:31:34;;;;;;;4.80;3.10;;;;;;;-145.79;100.00;76538.00;5332262;27;20023;-67
2023/10/25 08:34:05;;;;;;;4.85;3.13;;;;;;;-145.79;100.00;76531.63;5343440;27;20043;-66
2023/10/25 08:36:37;;;;;;;2.38;1.95;;;;;;;-145.79;100.00;76478.66;5332509;27;20007;-68
2023/10/25 08:39:09;;;;;;;4.75;3.05;;;;;;;-145.79;100.00;76510.44;5318425;27;20375;-66
2023/10/25 08:41:44;;;;;;;5.60;2.78;;;;;;;-145.79;100.00;76501.97;5332425;27;20030;-67
2023/10/25 08:44:15;;;;;;;4.50;2.67;;;;;;;-145.79;100.00;76512.56;5327800;27;20569;-67
2023/10/25 08:46:49;;;;;;;6.72;3.05;;;;;;;-145.79;100.00;76499.84;5317362;27;20100;-66
2023/10/25 08:49:20;;;;;;;4.10;2.83;;;;;;;-145.79;100.00;76465.94;5332348;27;20050;-66
2023/10/25 08:51:52;;;;;;;7.40;3.00;;;;;;;-145.79;100.00;76482.88;5330902;27;20016;-67
2023/10/25 08:54:24;;;;;;;5.82;3.08;;;;;;;-145.79;100.00;76482.88;5329994;27;20027;-67
2023/10/25 08:56:55;;;;;;;3.50;3.10;;;;;;;-145.79;100.00;76487.13;5338885;27;20102;-66
2023/10/25 08:59:27;;;;;;;4.38;3.30;;;;;;;-145.79;100.00;76472.28;5330800;27;20484;-67
2023/10/25 09:01:58;;;;;;;7.43;3.15;;;;;;;-145.79;100.00;76480.78;5327254;27;20089;-67
2023/10/25 09:04:29;;;;;;;8.20;3.13;;;;;;;-145.79;100.00;76468.06;5335872;27;20173;-67
2023/10/25 09:07:01;;;;;;;5.25;3.30;;;;;;;-145.79;100.00;76480.78;5329784;27;20367;-67
2023/10/25 09:09:39;;;;;;;5.07;3.20;;;;;;;-145.79;100.00;76463.81;5319824;27;20020;-67
2023/10/25 09:12:19;;;;;;;7.55;4.70;;;;;;;-145.79;100.00;76470.19;5322272;27;20028;-67
2023/10/25 09:14:51;;;;;;;8.90;3.78;;;;;;;-145.79;100.00;76476.53;5332299;27;20382;-67
2023/10/25 09:17:22;;;;;;;5.97;3.53;;;;;;;-145.79;100.00;76480.78;5335287;27;20024;-66
2023/10/25 09:19:54;;;;;;;4.78;3.17;;;;;;;-145.79;100.00;76478.66;5315040;27;20019;-66
2023/10/25 09:22:27;;;;;;;5.50;3.00;;;;;;;-145.79;100.00;76478.66;5313635;27;20048;-67
2023/10/25 09:25:00;;;;;;;5.25;2.92;;;;;;;-145.79;100.00;76478.66;5337921;27;20115;-67
2023/10/25 09:27:32;;;;;;;6.00;3.88;;;;;;;-145.79;100.00;76499.84;5327171;27;20051;-66
2023/10/25 09:30:12;;;;;;;5.22;3.70;;;;;;;-145.79;100.00;76480.78;5339260;27;20031;-67
2023/10/25 09:32:45;;;;;;;5.43;2.90;;;;;;;-145.79;100.00;76474.41;5336277;27;20019;-67
2023/10/25 09:35:19;;;;;;;7.07;5.53;;;;;;;-145.79;100.00;76474.41;5328449;27;20043;-68
2023/10/25 09:37:50;;;;;;;11.70;8.15;;;;;;;-145.79;100.00;76457.47;5336540;27;20031;-66
2023/10/25 09:40:23;;;;;;;5.18;4.00;;;;;;;-145.79;100.00;76457.47;5327266;27;20115;-67
2023/10/25 09:43:00;;;;;;;6.88;4.43;;;;;;;-145.79;100.00;76461.69;5325496;27;20073;-66
2023/10/25 09:45:31;;;;;;;5.75;3.78;;;;;;;-145.79;100.00;76451.09;5337630;27;20035;-66
2023/10/25 09:48:05;;;;;;;4.30;3.30;;;;;;;-145.79;100.00;76455.34;5325235;27;20504;-66
2023/10/25 09:50:40;;;;;;;5.55;4.32;;;;;;;-145.79;100.00;76446.88;5324959;27;20024;-67
2023/10/25 09:53:23;;;;;;;5.05;3.83;;;;;;;-145.79;100.00;76440.50;5322098;27;20432;-66
2023/10/25 09:56:03;;;;;;;8.32;4.65;;;;;;;-145.79;100.00;76438.38;5329819;27;20083;-67
2023/10/25 09:58:35;;;;;;;7.80;3.65;;;;;;;-145.79;100.00;76440.50;5334517;27;20478;-68
2023/10/25 10:01:08;;;;;;;5.55;3.55;;;;;;;-145.79;100.00;76438.38;5341902;27;20053;-68
2023/10/25 10:03:47;;;;;;;5.03;4.38;;;;;;;-145.79;100.00;76438.38;5328709;27;20132;-67
2023/10/25 10:06:23;;;;;;;5.35;4.03;;;;;;;-145.79;100.00;76432.03;5330384;27;20489;-67
2023/10/25 10:09:25;;;;;;;5.22;3.80;;;;;;;-145.79;100.00;76421.44;5335477;27;20092;-67
2023/10/25 10:12:05;;;;;;;8.10;5.13;;;;;;;-145.79;100.00;76423.56;5325176;27;20108;-66
2023/10/25 10:14:37;;;;;;;10.77;5.47;;;;;;;-145.79;100.00;76425.66;5334141;27;20027;-67
2023/10/25 10:17:12;;;;;;;7.60;4.88;;;;;;;-145.79;100.00;76412.97;5336691;27;20370;-68
2023/10/25 10:19:48;;;;;;;8.40;4.97;;;;;;;-145.79;100.00;76417.19;5334451;27;20023;-68
2023/10/25 10:22:19;;;;;;;7.55;4.75;;;;;;;-145.79;100.00;76406.59;5315571;27;20101;-68
2023/10/25 10:25:00;;;;;;;7.10;3.78;;;;;;;-145.79;100.00;76400.25;5331352;27;20027;-68
2023/10/25 10:27:40;;;;;;;5.15;4.50;;;;;;;-145.79;100.00;76393.88;5339193;27;20066;-67
2023/10/25 10:30:33;;;;;;;8.23;3.92;;;;;;;-145.79;100.00;76379.06;5328010;27;20031;-66
2023/10/25 10:33:13;;;;;;;6.70;5.47;;;;;;;-145.79;100.00;76385.41;5327459;27;20046;-67
2023/10/25 10:35:47;;;;;;;6.28;4.13;;;;;;;-145.79;100.00;76398.13;5336559;27;20084;-66
2023/10/25 10:38:18;;;;;;;4.53;3.47;;;;;;;-145.79;100.00;76385.41;5337214;27;20065;-66
2023/10/25 10:40:51;;;;;;;5.40;4.60;;;;;;;-145.79;100.00;76376.94;5334673;27;20051;-66
2023/10/25 10:43:22;;;;;;;5.07;4.13;;;;;;;-145.79;100.00;76376.94;5326524;27;20513;-68
2023/10/25 10:45:56;;;;;;;4.00;3.50;;;;;;;-145.79;100.00;76379.06;5324557;27;20063;-66
2023/10/25 10:48:34;;;;;;;4.85;3.40;;;;;;;-145.79;100.00;76368.47;5333742;27;20035;-68
2023/10/25 10:51:06;;;;;;;10.35;4.13;;;;;;;-145.79;100.00;76359.97;5327769;27;20027;-67
2023/10/25 10:53:38;;;;;;;5.40;3.85;;;;;;;-145.79;100.00;76355.75;5329437;27;20027;-67
2023/10/25 10:56:09;;;;;;;5.45;3.65;;;;;;;-145.79;100.00;76347.25;5327209;27;20125;-67
2023/10/25 10:58:41;;;;;;;5.40;4.32;;;;;;;-145.79;100.00;76343.03;5326173;27;20039;-67
2023/10/25 11:01:13;;;;;;;4.53;4.05;;;;;;;-145.79;100.00;76338.78;5327926;27;20548;-67
2023/10/25 11:03:44;;;;;;;4.50;3.92;;;;;;;-145.79;100.00;76323.97;5322764;27;20042;-67
2023/10/25 11:06:15;;;;;;;6.88;5.20;;;;;;;-145.79;100.00;76311.25;5334575;27;20027;-67
2023/10/25 11:08:47;;;;;;;5.93;3.97;;;;;;;-145.79;100.00;76313.34;5330268;27;20020;-66
2023/10/25 11:11:20;;;;;;;5.40;4.22;;;;;;;-145.79;100.00;76307.00;5327541;27;20027;-66
2023/10/25 11:13:51;;;;;;;4.40;4.00;;;;;;;-145.79;100.00;76300.66;5332957;28;20027;-67
2023/10/25 11:16:23;;;;;;;5.22;3.75;;;;;;;-145.79;100.00;76300.66;5327520;27;20097;-67
2023/10/25 11:19:05;;;;;;;4.05;3.58;;;;;;;-145.79;100.00;76296.41;5337120;28;20027;-67
2023/10/25 11:21:36;;;;;;;4.32;3.80;;;;;;;-145.79;100.00;76285.81;5326168;28;20044;-68
2023/10/25 11:24:09;;;;;;;5.15;3.60;;;;;;;-145.79;100.00;76292.16;5333715;28;20068;-68
2023/10/25 11:26:41;;;;;;;4.85;3.80;;;;;;;-145.79;100.00;76285.81;5336207;28;20027;-67
2023/10/25 11:29:13;;;;;;;3.80;3.03;;;;;;;-145.79;100.00;76290.06;5337966;28;20039;-67
2023/10/25 11:31:45;;;;;;;4.03;3.55;;;;;;;-145.79;100.00;76277.34;5321119;28;20330;-67
2023/10/25 11:34:19;;;;;;;4.38;3.35;;;;;;;-145.79;100.00;76277.34;5328870;28;20042;-67
2023/10/25 11:36:51;;;;;;;5.22;3.72;;;;;;;-145.79;100.00;76281.56;5337375;28;20034;-67
2023/10/25 11:39:23;;;;;;;6.88;3.80;;;;;;;-145.79;100.00;76266.75;5315026;28;20024;-67
2023/10/25 11:41:55;;;;;;;5.55;3.70;;;;;;;-145.79;100.00;76266.75;5333464;28;20057;-67
2023/10/25 11:44:27;;;;;;;4.40;3.70;;;;;;;-145.79;100.00;76266.75;5326415;28;20028;-67
2023/10/25 11:47:01;;;;;;;5.53;3.97;;;;;;;-145.79;100.00;76270.97;5335422;28;20493;-67
2023/10/25 11:49:33;;;;;;;6.18;3.90;;;;;;;-145.79;100.00;76266.75;5332951;28;20031;-67
2023/10/25 11:52:05;;;;;;;5.00;3.65;;;;;;;-145.79;100.00;76268.84;5322593;28;20032;-66
2023/10/25 11:54:36;;;;;;;5.35;3.65;;;;;;;-145.79;100.00;76260.38;5333421;28;20027;-67
2023/10/25 11:57:08;;;;;;;5.70;3.97;;;;;;;-145.79;100.00;76249.78;5331631;28;20088;-67
2023/10/25 11:59:39;;;;;;;4.20;3.22;;;;;;;-145.79;100.00;76237.06;5328362;28;20027;-67
2023/10/25 12:02:10;;;;;;;4.35;3.15;;;;;;;-145.79;100.00;76245.56;5332563;28;20028;-68
2023/10/25 12:04:41;;;;;;;4.82;3.50;;;;;;;-145.79;100.00;76232.84;5330384;28;20091;-67
2023/10/25 12:07:13;;;;;;;5.82;3.72;;;;;;;-145.79;100.00;76230.72;5334582;27;20024;-68
2023/10/25 12:09:45;;;;;;;4.00;3.58;;;;;;;-145.79;100.00;76228.59;5326491;27;20024;-68
2023/10/25 12:12:17;;;;;;;4.03;3.40;;;;;;;-145.79;100.00;76228.59;5331818;27;20097;-68
2023/10/25 12:14:49;;;;;;;4.10;3.70;;;;;;;-145.79;100.00;76224.38;5331149;27;20035;-68
2023/10/25 12:17:20;;;;;;;4.60;4.20;;;;;;;-145.79;100.00;76232.84;5335077;27;20505;-68
2023/10/25 12:19:51;;;;;;;4.32;3.92;;;;;;;-145.79;100.00;76220.13;5333517;27;20023;-68
2023/10/25 12:22:22;;;;;;;5.03;4.50;;;;;;;-145.79;100.00;76196.81;5338242;27;20077;-67
2023/10/25 12:24:54;;;;;;;4.70;4.20;;;;;;;-145.79;100.00;76211.66;5342873;27;20016;-67
2023/10/25 12:27:25;;;;;;;4.18;3.70;;;;;;;-145.79;100.00;76203.16;5321085;27;20032;-67
2023/10/25 12:29:56;;;;;;;4.88;4.00;;;;;;;-145.79;100.00;76207.41;5328885;27;20105;-67
2023/10/25 12:32:29;;;;;;;4.32;3.92;;;;;;;-145.79;100.00;76205.28;5329850;27;20169;-68
2023/10/25 12:35:01;;;;;;;7.70;4.72;;;;;;;-145.79;100.00;76198.94;5340865;27;20027;-67
2023/10/25 12:37:32;;;;;;;4.10;3.70;;;;;;;-145.79;100.00;76194.69;5330781;27;20088;-68
2023/10/25 12:40:04;;;;;;;4.82;3.97;;;;;;;-145.79;100.00;76188.34;5340474;27;20163;-67
2023/10/25 12:42:36;;;;;;;4.50;4.10;;;;;;;-145.79;100.00;76188.34;5332303;27;20089;-68
2023/10/25 12:45:08;;;;;;;5.63;4.28;;;;;;;-145.79;100.00;76181.97;5331878;27;20062;-66
2023/10/25 12:47:39;;;;;;;5.97;4.50;;;;;;;-145.79;100.00;76175.63;5339453;27;20023;-67
2023/10/25 12:50:11;;;;;;;4.82;4.13;;;;;;;-145.79;100.00;76160.78;5336360;27;20050;-66
2023/10/25 12:52:43;;;;;;;4.55;3.85;;;;;;;-145.79;100.00;76160.78;5335405;27;20370;-68
2023/10/25 12:55:14;;;;;;;4.35;3.97;;;;;;;-145.79;100.00;76158.66;5339910;27;20031;-66
2023/10/25 12:57:45;;;;;;;16.98;15.38;;;;;;;-145.79;100.00;76139.59;5334987;27;20458;-67
2023/10/25 13:00:17;;;;;;;6.10;5.35;;;;;;;-145.79;100.00;76141.72;5318447;27;20015;-66
2023/10/25 13:02:48;;;;;;;3.95;3.55;;;;;;;-145.79;100.00;76152.31;5335827;27;20035;-67
2023/10/25 13:05:19;;;;;;;4.00;3.70;;;;;;;-145.79;100.00;76141.72;5335291;27;20139;-67
2023/10/25 13:07:51;;;;;;;4.05;3.63;;;;;;;-145.79;100.00;76139.59;5336053;27;20016;-67
2023/10/25 13:10:23;;;;;;;11.27;10.20;;;;;;;-145.79;100.00;76131.13;5336426;27;20028;-67
2023/10/25 13:12:54;;;;;;;5.28;4.13;;;;;;;-145.79;100.00;76122.66;5334862;27;20392;-67
2023/10/25 13:15:25;;;;;;;5.07;4.00;;;;;;;-145.79;100.00;76112.06;5338529;27;20027;-67
2023/10/25 13:17:56;;;;;;;4.68;4.28;;;;;;;-145.79;100.00;76118.41;5330372;27;20034;-67
2023/10/25 13:20:28;;;;;;;4.38;3.72;;;;;;;-145.79;100.00;76105.69;5326913;27;20443;-67
2023/10/25 13:23:00;;;;;;;5.68;3.65;;;;;;;-145.79;100.00;76105.69;5329564;27;20065;-67
2023/10/25 13:25:31;;;;;;;4.43;4.03;;;;;;;-145.79;100.00;76095.09;5338230;27;20132;-67
2023/10/25 13:28:03;;;;;;;5.80;4.10;;;;;;;-145.79;100.00;76086.63;5339059;27;20102;-67
2023/10/25 13:30:34;;;;;;;4.82;4.18;;;;;;;-145.79;100.00;76090.88;5337150;27;20110;-68
2023/10/25 13:33:05;;;;;;;5.35;4.13;;;;;;;-145.79;100.00;76086.63;5327569;27;20035;-68
2023/10/25 13:35:37;;;;;;;5.18;3.83;;;;;;;-145.79;100.00;76080.28;5334750;27;20027;-68
2023/10/25 13:38:08;;;;;;;4.18;3.60;;;;;;;-145.79;100.00;76071.78;5334860;27;20102;-68
2023/10/25 13:40:41;;;;;;;5.63;3.80;;;;;;;-145.79;100.00;76078.16;5335498;27;20085;-68
2023/10/25 13:43:14;;;;;;;4.45;4.05;;;;;;;-145.79;100.00;76080.28;5332007;27;20381;-66
2023/10/25 13:45:45;;;;;;;4.15;3.25;;;;;;;-145.79;100.00;76063.31;5336928;27;20028;-67
2023/10/25 13:48:17;;;;;;;5.22;3.97;;;;;;;-145.79;100.00;76065.44;5334193;27;20068;-68
2023/10/25 13:50:48;;;;;;;4.32;3.40;;;;;;;-145.79;100.00;76059.09;5330918;27;20024;-68
2023/10/25 13:53:19;;;;;;;4.50;4.10;;;;;;;-145.79;100.00;76056.97;5335950;27;20100;-68
2023/10/25 13:55:51;;;;;;;6.70;4.38;;;;;;;-145.79;100.00;76063.31;5336902;27;20389;-67
2023/10/25 13:58:22;;;;;;;5.05;3.65;;;;;;;-145.79;100.00;76054.84;5334497;27;20015;-67
2023/10/25 14:00:53;;;;;;;4.10;3.60;;;;;;;-145.79;100.00;76061.19;5335244;27;20092;-67
2023/10/25 14:03:25;;;;;;;3.70;3.22;;;;;;;-145.79;100.00;76054.84;5337908;27;20038;-67
2023/10/25 14:06:02;;;;;;;4.78;3.38;;;;;;;-145.79;100.00;76054.84;5329382;27;20042;-67
2023/10/25 14:08:34;;;;;;;4.40;4.00;;;;;;;-145.79;100.00;76054.84;5326040;27;20431;-68
2023/10/25 14:11:06;;;;;;;4.55;3.70;;;;;;;-145.79;100.00;76059.09;5329260;27;20031;-67
2023/10/25 14:13:37;;;;;;;3.78;3.47;;;;;;;-145.79;100.00;76056.97;5328468;27;20023;-66
2023/10/25 14:16:09;;;;;;;4.80;4.30;;;;;;;-145.79;100.00;76050.59;5321593;27;20107;-67
2023/10/25 14:18:40;;;;;;;5.45;4.05;;;;;;;-145.79;100.00;76050.59;5336142;27;20027;-67
2023/10/25 14:21:12;;;;;;;4.63;4.22;;;;;;;-145.79;100.00;76046.38;5328895;27;20043;-67
2023/10/25 14:23:44;;;;;;;5.32;4.25;;;;;;;-145.79;100.00;76037.88;5338045;27;20102;-67
2023/10/25 14:26:16;;;;;;;4.82;4.43;;;;;;;-145.79;100.00;76042.13;5336025;27;20084;-67
2023/10/25 14:28:47;;;;;;;4.95;4.00;;;;;;;-145.79;100.00;76037.88;5327636;27;20027;-67
2023/10/25 14:31:18;;;;;;;4.57;4.00;;;;;;;-145.79;100.00;76042.13;5336742;27;20106;-67
2023/10/25 14:33:50;;;;;;;4.38;3.97;;;;;;;-145.79;100.00;76042.13;5334322;27;20098;-67
2023/10/25 14:36:22;;;;;;;4.40;3.88;;;;;;;-145.79;100.00;76037.88;5332089;27;20063;-68
2023/10/25 14:38:53;;;;;;;4.75;4.35;;;;;;;-145.79;100.00;76031.53;5337546;27;20015;-68
2023/10/25 14:41:25;;;;;;;5.35;4.70;;;;;;;-145.79;100.00;76031.53;5327680;27;20114;-67
2023/10/25 14:43:56;;;;;;;83.35;76.03;;;;;;;-145.79;100.00;76029.41;5332094;27;20488;-67
2023/10/25 14:46:28;;;;;;;10.07;9.18;;;;;;;-145.79;100.00;76027.28;5326248;27;20118;-66
2023/10/25 14:48:59;;;;;;;4.95;4.55;;;;;;;-145.79;100.00;76020.94;5335817;27;20095;-67
2023/10/25 14:51:31;;;;;;;4.72;3.72;;;;;;;-145.79;100.00;76023.06;5336371;27;20493;-67
2023/10/25 14:54:02;;;;;;;4.35;3.70;;;;;;;-145.79;100.00;76020.94;5333077;27;20012;-67
2023/10/25 14:56:34;;;;;;;4.00;3.70;;;;;;;-145.79;100.00;76029.41;5324856;27;20031;-67
2023/10/25 14:59:05;;;;;;;3.85;3.55;;;;;;;-145.79;100.00;76025.19;5325179;27;20031;-66
2023/10/25 15:01:36;;;;;;;5.13;4.07;;;;;;;-145.79;100.00;76025.19;5323822;27;20442;-67
2023/10/25 15:04:08;;;;;;;21.50;19.55;;;;;;;-145.79;100.00;76025.19;5326173;27;20081;-68
2023/10/25 15:06:39;;;;;;;7.00;6.40;;;;;;;-145.79;100.00;76027.28;5317496;27;20031;-68
2023/10/25 15:09:11;;;;;;;6.05;5.53;;;;;;;-145.79;100.00;76029.41;5315101;27;20020;-67
2023/10/25 15:11:42;;;;;;;21.98;20.08;;;;;;;-145.79;100.00;76025.19;5324143;27;20023;-67
2023/10/25 15:14:14;;;;;;;6.22;5.40;;;;;;;-145.79;100.00;76020.94;5333546;27;20028;-67
2023/10/25 15:16:46;;;;;;;5.03;4.57;;;;;;;-145.79;100.00;76029.41;5329232;27;20470;-67
2023/10/25 15:19:17;;;;;;;4.35;3.95;;;;;;;-145.79;100.00;76018.81;5334064;27;20019;-67
2023/10/25 15:21:49;;;;;;;4.30;3.90;;;;;;;-145.79;100.00;76027.28;5327152;28;20066;-66
2023/10/25 15:24:20;;;;;;;5.28;4.18;;;;;;;-145.79;100.00;76018.81;5332102;28;20080;-67
2023/10/25 15:26:51;;;;;;;22.67;5.20;;;;;;;-145.79;100.00;76014.59;5337756;28;20015;-69
2023/10/25 15:29:23;;;;;;;4.75;4.30;;;;;;;-145.79;100.00;76012.47;5328978;28;20031;-68
2023/10/25 15:31:55;;;;;;;3.75;3.20;;;;;;;-145.79;100.00;76018.81;5332811;28;20118;-68
2023/10/25 15:34:27;;;;;;;3.72;3.08;;;;;;;-145.79;100.00;76010.34;5317442;28;20102;-66
2023/10/25 15:36:58;;;;;;;3.50;3.20;;;;;;;-145.79;100.00;76012.47;5326904;28;20466;-66
2023/10/25 15:39:31;;;;;;;4.00;3.60;;;;;;;-145.79;100.00;76016.69;5319765;28;20035;-66
2023/10/25 15:42:02;;;;;;;3.28;2.97;;;;;;;-145.79;100.00;76025.19;5332007;28;20038;-67
2023/10/25 15:44:34;;;;;;;3.53;3.22;;;;;;;-145.79;100.00;76014.59;5335094;27;20028;-66
2023/10/25 15:47:05;;;;;;;3.25;2.95;;;;;;;-145.79;100.00;76018.81;5336957;27;20327;-66
2023/10/25 15:49:36;;;;;;;3.15;2.85;;;;;;;-145.79;100.00;76016.69;5321556;27;20020;-66
2023/10/25 15:52:07;;;;;;;4.95;4.32;;;;;;;-145.79;100.00;76012.47;5339335;27;20031;-67
2023/10/25 15:54:39;;;;;;;4.00;3.70;;;;;;;-145.79;100.00;76010.34;5336843;27;20054;-67
2023/10/25 15:57:10;;;;;;;7.28;6.57;;;;;;;-145.79;100.00;76012.47;5334498;27;20024;-67
2023/10/25 15:59:41;;;;;;;5.38;4.88;;;;;;;-145.79;100.00;76018.81;5316788;27;20051;-67
2023/10/25 16:02:13;;;;;;;5.57;5.00;;;;;;;-145.79;100.00;76018.81;5336848;27;20034;-67
2023/10/25 16:04:46;;;;;;;4.20;3.70;;;;;;;-145.79;100.00;76029.41;5331461;27;20027;-67
2023/10/25 16:07:17;;;;;;;10.98;10.05;;;;;;;-145.79;100.00;76020.94;5333817;27;20027;-67
2023/10/25 16:09:48;;;;;;;10.95;9.85;;;;;;;-145.79;100.00;76029.41;5326404;27;20019;-67
2023/10/25 16:12:20;;;;;;;5.90;5.30;;;;;;;-145.79;100.00;76020.94;5337688;27;20035;-68
2023/10/25 16:14:51;;;;;;;5.35;4.35;;;;;;;-145.79;100.00;76020.94;5334167;27;20024;-68
2023/10/25 16:17:25;;;;;;;3.92;3.60;;;;;;;-145.79;100.00;76042.13;5331859;27;20034;-67
2023/10/25 16:19:56;;;;;;;4.00;3.70;;;;;;;-145.79;100.00;76035.78;5341023;27;20019;-68
2023/10/25 16:22:27;;;;;;;12.38;11.15;;;;;;;-145.79;100.00;76029.41;5336676;27;20151;-68
2023/10/25 16:24:59;;;;;;;5.25;4.75;;;;;;;-145.79;100.00;76037.88;5335810;27;20031;-67
2023/10/25 16:27:30;;;;;;;5.93;4.82;;;;;;;-145.79;100.00;76027.28;5316231;27;20032;-67
2023/10/25 16:30:02;;;;;;;8.98;8.13;;;;;;;-145.79;100.00;76029.41;5339816;27;20466;-67
2023/10/25 16:32:33;;;;;;;6.22;5.72;;;;;;;-145.79;100.00;76029.41;5338256;27;20027;-68
2023/10/25 16:35:06;;;;;;;6.18;5.63;;;;;;;-145.79;100.00;76035.78;5331996;27;20035;-67
2023/10/25 16:37:37;;;;;;;6.22;5.68;;;;;;;-145.79;100.00;76035.78;5327327;27;20032;-68
2023/10/25 16:40:09;;;;;;;5.32;4.93;;;;;;;-145.79;100.00;76033.66;5339115;27;20558;-67
2023/10/25 16:42:40;;;;;;;6.18;5.78;;;;;;;-145.79;100.00;76040.00;5334435;27;20111;-68
2023/10/25 16:45:12;;;;;;;5.70;5.30;;;;;;;-145.79;100.00;76044.25;5339862;27;20046;-67
2023/10/25 16:47:43;;;;;;;5.60;5.20;;;;;;;-145.79;100.00;76054.84;5334438;27;20020;-68
2023/10/25 16:50:14;;;;;;;6.78;6.28;;;;;;;-145.79;100.00;76046.38;5339279;27;20034;-67
2023/10/25 16:52:46;;;;;;;6.38;5.85;;;;;;;-145.79;100.00;76044.25;5336827;27;20496;-67
